This is the latest recevied weather packets stored in our database for station/object IZ8QAD-12. If no packets are shown the sender has not sent any weather packets the latest 10 day(s).
| Time | Temp. | Humidity | Pressure | Rain* | Wind** | Luminosity | Snow |
|---|---|---|---|---|---|---|---|
| 1778278363 | 8.33° C | 64% | 969.1 hPa | - | - | - | - |
| 1778275672 | 8.89° C | 63% | 969 hPa | - | - | - | - |
| 1778272963 | 9.44° C | 60% | 968.9 hPa | - | - | - | - |
| 1778270260 | 10.56° C | 57% | 968.7 hPa | - | - | - | - |
| 1778267560 | 11.67° C | 55% | 968.3 hPa | - | - | - | - |
| 1778264860 | 12.22° C | 53% | 967.9 hPa | - | - | - | - |
| 1778262160 | 13.89° C | 52% | 967.1 hPa | - | - | - | - |
| 1778256760 | 17.78° C | 46% | 966.3 hPa | - | - | - | - |
| 1778254060 | 20° C | 44% | 966.2 hPa | - | - | - | - |
| 1778251360 | 20.56° C | 42% | 966.1 hPa | - | - | - | - |
| 1778248668 | 23.33° C | 37% | 966.3 hPa | - | - | - | - |
| 1778245960 | 23.89° C | 36% | 966.3 hPa | - | - | - | - |
| 1778243259 | 22.78° C | 37% | 966 hPa | - | - | - | - |
| 1778240559 | 25° C | 34% | 965.9 hPa | - | - | - | - |
| 1778237859 | 31.11° C | 26% | 965.6 hPa | - | - | - | - |
| 1778235159 | 35° C | 24% | 965.4 hPa | - | - | - | - |
| 1778232459 | 33.33° C | 25% | 965.4 hPa | - | - | - | - |
| 1778229759 | 37.78° C | 24% | 965.4 hPa | - | - | - | - |
| 1778224360 | 20.56° C | 50% | 965 hPa | - | - | - | - |
| 1778221659 | 17.78° C | 54% | 964.6 hPa | - | - | - | - |
| 1778218959 | 15.56° C | 58% | 964.6 hPa | - | - | - | - |
| 1778216259 | 12.78° C | 59% | 964.2 hPa | - | - | - | - |
| 1778213558 | 12.22° C | 59% | 963.9 hPa | - | - | - | - |
| 1778210858 | 12.22° C | 58% | 963.7 hPa | - | - | - | - |
| 1778208158 | 12.22° C | 57% | 963.7 hPa | - | - | - | - |
* Rain since midnight (hover to see other rain measurements)
** Current wind speed in m/s (hover to see current wind gust speed)